Cardedeu, Spain
Current Conditions -  °F | °C
As of 1:30 PM on Thursday 30 Oct 2014 (Local Time) from LELL Reporting Station
Few Clouds Few Clouds  
Wind Chill: 22°   Ceiling: Unl
Heat Index: 22°   Visibility: 6mi
Dew Point: 14°   Wind: 2mph
Humidity: 60%   Direction: NA
Pressure: 30.18"   Gusts: NA
Location:  41.64°N, 2.36°E
Report Text: LELL 301230Z VRB02KT 9000 FEW025 22/14 Q1022
Loading
Personal Weather Stations






























Interactive Weather Map
Tropical Storm Tracking
New forecast layout! Learn more

10-Day Weather Forecast

Advertisements
Track Severe Weather on mobile